createdAt,value
2022-12-11T00:00:16.170Z,30.430
2022-12-11T00:05:16.107Z,30.430
2022-12-11T00:10:19.105Z,30.426
2022-12-11T00:15:16.155Z,30.423
2022-12-11T00:20:19.087Z,30.420
2022-12-11T00:25:19.092Z,30.419
2022-12-11T00:30:19.074Z,30.425
2022-12-11T00:35:19.068Z,30.425
2022-12-11T00:40:19.121Z,30.426
2022-12-11T00:45:19.128Z,30.423
2022-12-11T00:50:19.098Z,30.419
2022-12-11T00:55:19.103Z,30.412
2022-12-11T01:00:19.085Z,30.409
2022-12-11T01:05:16.149Z,30.404
2022-12-11T01:10:16.223Z,30.400
2022-12-11T01:15:19.100Z,30.394
2022-12-11T01:20:19.059Z,30.391
2022-12-11T01:25:19.185Z,30.387
2022-12-11T01:30:33.847Z,30.381
2022-12-11T01:35:16.253Z,30.384
2022-12-11T01:40:19.116Z,30.381
2022-12-11T01:45:19.174Z,30.381
2022-12-11T01:50:19.170Z,30.383
2022-12-11T01:55:19.154Z,30.382
2022-12-11T02:00:19.156Z,30.382
2022-12-11T02:05:16.184Z,30.381
2022-12-11T02:10:19.190Z,30.375
2022-12-11T02:15:16.184Z,30.376
2022-12-11T02:20:50.486Z,30.372
2022-12-11T02:25:19.187Z,30.370
2022-12-11T02:30:19.151Z,30.368
2022-12-11T02:35:16.286Z,30.372
2022-12-11T02:40:19.193Z,30.371
2022-12-11T02:45:19.237Z,30.367
2022-12-11T02:50:19.217Z,30.366
2022-12-11T02:55:19.162Z,30.371
2022-12-11T03:00:16.161Z,30.367
2022-12-11T03:05:19.250Z,30.369
2022-12-11T03:10:19.155Z,30.367
2022-12-11T03:15:19.138Z,30.369
2022-12-11T03:20:19.118Z,30.369
2022-12-11T03:25:19.229Z,30.373
2022-12-11T03:30:16.294Z,30.375
2022-12-11T03:35:19.243Z,30.379
2022-12-11T03:40:19.217Z,30.382
2022-12-11T03:45:19.203Z,30.385
2022-12-11T03:50:19.188Z,30.390
2022-12-11T03:55:19.162Z,30.395
2022-12-11T04:00:19.167Z,30.397
2022-12-11T04:05:19.185Z,30.401
2022-12-11T04:10:19.164Z,30.401
2022-12-11T04:15:19.151Z,30.402
2022-12-11T04:20:19.207Z,30.402
2022-12-11T04:25:19.193Z,30.402
2022-12-11T04:30:16.218Z,30.397
2022-12-11T04:35:19.256Z,30.394
2022-12-11T04:40:19.178Z,30.395
2022-12-11T04:45:16.200Z,30.398
2022-12-11T04:50:16.195Z,30.398
2022-12-11T04:55:19.251Z,30.397
2022-12-11T05:00:18.467Z,30.397
2022-12-11T05:05:15.441Z,30.400
2022-12-11T05:10:18.495Z,30.399
2022-12-11T05:15:18.539Z,30.397
2022-12-11T05:20:18.467Z,30.397
2022-12-11T05:25:18.438Z,30.395
2022-12-11T05:30:18.446Z,30.394
2022-12-11T05:35:15.518Z,30.393
2022-12-11T05:40:18.464Z,30.391
2022-12-11T05:45:15.380Z,30.393
2022-12-11T05:50:15.637Z,30.392
2022-12-11T05:55:15.491Z,30.392
2022-12-11T06:00:18.513Z,30.393
2022-12-11T06:05:18.550Z,30.393
2022-12-11T06:10:18.467Z,30.394
2022-12-11T06:15:18.507Z,30.396
2022-12-11T06:20:18.499Z,30.396
2022-12-11T06:25:15.426Z,30.396
2022-12-11T06:30:15.320Z,30.399
2022-12-11T06:35:18.539Z,30.399
2022-12-11T06:40:18.513Z,30.400
2022-12-11T06:45:18.463Z,30.398
2022-12-11T06:50:18.502Z,30.401
2022-12-11T06:55:18.504Z,30.401
2022-12-11T07:00:18.518Z,30.403
2022-12-11T07:05:18.470Z,30.403
2022-12-11T07:10:18.582Z,30.399
2022-12-11T07:15:18.565Z,30.396
2022-12-11T07:20:18.484Z,30.397
2022-12-11T07:25:18.567Z,30.396
2022-12-11T07:30:18.624Z,30.393
2022-12-11T07:35:18.597Z,30.392
2022-12-11T07:40:18.487Z,30.390
2022-12-11T07:45:18.573Z,30.392
2022-12-11T07:50:15.605Z,30.394
2022-12-11T07:55:18.626Z,30.390
2022-12-11T08:00:18.508Z,30.393
2022-12-11T08:05:30.541Z,30.393
2022-12-11T08:10:15.620Z,30.388
2022-12-11T08:15:15.602Z,30.389
2022-12-11T08:20:15.623Z,30.387
2022-12-11T08:25:15.492Z,30.386
2022-12-11T08:30:18.608Z,30.387
2022-12-11T08:35:18.601Z,30.386
2022-12-11T08:40:18.600Z,30.386
2022-12-11T08:45:15.358Z,30.387
2022-12-11T08:50:18.597Z,30.386
2022-12-11T08:55:18.636Z,30.389
2022-12-11T09:00:18.591Z,30.388
2022-12-11T09:05:18.603Z,30.383
2022-12-11T09:10:18.616Z,30.379
2022-12-11T09:15:18.622Z,30.380
2022-12-11T09:20:15.659Z,30.383
2022-12-11T09:25:15.640Z,30.383
2022-12-11T09:30:18.588Z,30.388
2022-12-11T09:35:18.627Z,30.389
2022-12-11T09:40:18.554Z,30.392
2022-12-11T09:45:18.614Z,30.391
2022-12-11T09:50:18.650Z,30.387
2022-12-11T09:55:15.697Z,30.390
2022-12-11T10:00:15.601Z,30.390
2022-12-11T10:05:15.707Z,30.392
2022-12-11T10:10:15.640Z,30.389
2022-12-11T10:15:15.913Z,30.392
2022-12-11T10:20:15.693Z,30.394
2022-12-11T10:25:15.423Z,30.393
2022-12-11T10:30:15.664Z,30.390
2022-12-11T10:35:18.692Z,30.387
2022-12-11T10:40:18.591Z,30.386
2022-12-11T10:45:18.620Z,30.382
2022-12-11T10:50:18.653Z,30.382
2022-12-11T10:55:18.633Z,30.382
2022-12-11T11:00:18.673Z,30.384
2022-12-11T11:05:18.614Z,30.385
2022-12-11T11:10:18.609Z,30.384
2022-12-11T11:15:18.622Z,30.388
2022-12-11T11:20:18.641Z,30.391
2022-12-11T11:25:18.660Z,30.388
2022-12-11T11:30:18.662Z,30.385
2022-12-11T11:35:15.536Z,30.385
2022-12-11T11:40:28.090Z,30.379
2022-12-11T11:45:18.661Z,30.377
2022-12-11T11:50:15.703Z,30.377
2022-12-11T11:55:22.456Z,30.383
2022-12-11T12:00:18.711Z,30.379
2022-12-11T12:05:18.644Z,30.378
2022-12-11T12:10:15.679Z,30.370
2022-12-11T12:15:15.755Z,30.371
2022-12-11T12:20:18.716Z,30.372
2022-12-11T12:25:15.614Z,30.370
2022-12-11T12:30:22.438Z,30.364
2022-12-11T12:35:15.731Z,30.367
2022-12-11T12:40:18.656Z,30.363
2022-12-11T12:45:18.723Z,30.365
2022-12-11T12:50:18.666Z,30.366
2022-12-11T12:55:15.498Z,30.362
2022-12-11T13:00:15.741Z,30.362
2022-12-11T13:05:15.724Z,30.367
2022-12-11T13:10:15.715Z,30.364
2022-12-11T13:15:15.695Z,30.362
2022-12-11T13:20:18.717Z,30.361
2022-12-11T13:25:18.716Z,30.359
2022-12-11T13:30:18.769Z,30.365
2022-12-11T13:35:15.709Z,30.367
2022-12-11T13:40:15.722Z,30.364
2022-12-11T13:45:15.627Z,30.361
2022-12-11T13:50:18.746Z,30.362
2022-12-11T13:55:18.735Z,30.363
2022-12-11T14:00:18.734Z,30.366
2022-12-11T14:05:18.742Z,30.364
2022-12-11T14:10:18.670Z,30.360
2022-12-11T14:15:18.704Z,30.360
2022-12-11T14:20:18.663Z,30.359
2022-12-11T14:25:18.688Z,30.358
2022-12-11T14:30:15.755Z,30.356
2022-12-11T14:35:15.749Z,30.356
2022-12-11T14:40:15.759Z,30.358
2022-12-11T14:45:15.765Z,30.354
2022-12-11T14:50:18.859Z,30.353
2022-12-11T14:55:18.785Z,30.355
2022-12-11T15:00:18.776Z,30.354
2022-12-11T15:05:18.753Z,30.351
2022-12-11T15:10:18.698Z,30.349
2022-12-11T15:15:18.743Z,30.346
2022-12-11T15:20:18.703Z,30.347
2022-12-11T15:25:15.797Z,30.345
2022-12-11T15:30:15.784Z,30.341
2022-12-11T15:35:15.585Z,30.341
2022-12-11T15:40:18.725Z,30.336
2022-12-11T15:45:15.675Z,30.330
2022-12-11T15:50:18.871Z,30.331
2022-12-11T15:55:18.767Z,30.331
2022-12-11T16:00:18.716Z,30.325
2022-12-11T16:05:18.714Z,30.318
2022-12-11T16:10:18.732Z,30.317
2022-12-11T16:15:23.504Z,30.304
2022-12-11T16:20:15.775Z,30.305
2022-12-11T16:25:18.823Z,30.303
2022-12-11T16:30:15.843Z,30.302
2022-12-11T16:35:18.774Z,30.302
2022-12-11T16:40:15.775Z,30.301
2022-12-11T16:45:18.852Z,30.302
2022-12-11T16:50:18.749Z,30.299
2022-12-11T16:55:15.839Z,30.293
2022-12-11T17:00:18.813Z,30.288
2022-12-11T17:05:18.783Z,30.285
2022-12-11T17:10:15.901Z,30.277
2022-12-11T17:15:18.856Z,30.275
2022-12-11T17:20:15.880Z,30.269
2022-12-11T17:25:15.797Z,30.266
2022-12-11T17:30:18.807Z,30.264
2022-12-11T17:35:19.442Z,30.262
2022-12-11T17:40:15.851Z,30.260
2022-12-11T17:45:18.825Z,30.257
2022-12-11T17:50:15.631Z,30.254
2022-12-11T17:55:18.835Z,30.252
2022-12-11T18:00:15.920Z,30.251
2022-12-11T18:05:18.874Z,30.247
2022-12-11T18:10:18.774Z,30.250
2022-12-11T18:15:18.821Z,30.248
2022-12-11T18:20:15.862Z,30.245
2022-12-11T18:25:16.317Z,30.242
2022-12-11T18:30:15.829Z,30.237
2022-12-11T18:35:18.887Z,30.241
2022-12-11T18:40:18.817Z,30.238
2022-12-11T18:45:18.788Z,30.235
2022-12-11T18:50:18.827Z,30.235
2022-12-11T18:55:18.798Z,30.233
2022-12-11T19:00:18.925Z,30.229
2022-12-11T19:05:18.849Z,30.230
2022-12-11T19:10:15.866Z,30.230
2022-12-11T19:15:23.483Z,30.226
2022-12-11T19:20:47.596Z,30.227
2022-12-11T19:25:15.882Z,30.225
2022-12-11T19:30:18.892Z,30.223
2022-12-11T19:35:18.922Z,30.219
2022-12-11T19:40:18.827Z,30.220
2022-12-11T19:45:18.842Z,30.222
2022-12-11T19:50:18.890Z,30.222
2022-12-11T19:55:18.884Z,30.221
2022-12-11T20:00:15.922Z,30.218
2022-12-11T20:05:18.929Z,30.218
2022-12-11T20:10:18.949Z,30.219
2022-12-11T20:15:18.846Z,30.214
2022-12-11T20:20:18.875Z,30.214
2022-12-11T20:25:15.739Z,30.214
2022-12-11T20:30:18.952Z,30.212
2022-12-11T20:35:18.924Z,30.214
2022-12-11T20:40:18.888Z,30.212
2022-12-11T20:45:18.838Z,30.213
2022-12-11T20:50:15.890Z,30.212
2022-12-11T20:55:18.899Z,30.207
2022-12-11T21:00:15.876Z,30.206
2022-12-11T21:05:15.818Z,30.202
2022-12-11T21:10:18.914Z,30.202
2022-12-11T21:15:15.928Z,30.201
2022-12-11T21:20:18.940Z,30.201
2022-12-11T21:25:18.888Z,30.199
2022-12-11T21:30:18.895Z,30.198
2022-12-11T21:35:15.959Z,30.198
2022-12-11T21:40:15.720Z,30.195
2022-12-11T21:46:01.149Z,30.194
2022-12-11T21:50:15.947Z,30.197
2022-12-11T21:55:15.978Z,30.195
2022-12-11T22:00:15.976Z,30.194
2022-12-11T22:05:18.943Z,30.193
2022-12-11T22:10:18.916Z,30.191
2022-12-11T22:15:15.987Z,30.188
2022-12-11T22:20:15.922Z,30.186
2022-12-11T22:25:15.803Z,30.187
2022-12-11T22:30:19.221Z,30.183
2022-12-11T22:35:16.047Z,30.183
2022-12-11T22:40:18.976Z,30.178
2022-12-11T22:45:15.919Z,30.177
2022-12-11T22:50:18.992Z,30.172
2022-12-11T22:55:15.952Z,30.172
2022-12-11T23:00:15.976Z,30.169
2022-12-11T23:05:15.805Z,30.168
2022-12-11T23:10:18.979Z,30.166
2022-12-11T23:15:18.977Z,30.166
2022-12-11T23:20:18.970Z,30.165
2022-12-11T23:25:15.980Z,30.164
2022-12-11T23:30:16.012Z,30.161
2022-12-11T23:35:16.085Z,30.161
2022-12-11T23:40:15.985Z,30.160
2022-12-11T23:45:15.949Z,30.159
2022-12-11T23:50:19.000Z,30.158
2022-12-11T23:55:15.992Z,30.155
